createdAt,value
2023-01-01T00:01:27.767Z,14.61
2023-01-01T00:03:59.805Z,14.18
2023-01-01T00:06:30.376Z,13.88
2023-01-01T00:09:19.089Z,13.65
2023-01-01T00:11:49.792Z,13.81
2023-01-01T00:14:20.826Z,15.06
2023-01-01T00:16:51.383Z,16.03
2023-01-01T00:19:22.110Z,16.36
2023-01-01T00:21:53.974Z,15.53
2023-01-01T00:24:25.175Z,14.57
2023-01-01T00:26:55.800Z,13.82
2023-01-01T00:29:27.262Z,13.25
2023-01-01T00:31:57.804Z,13.08
2023-01-01T00:34:29.135Z,14.13
2023-01-01T00:37:00.275Z,15.10
2023-01-01T00:39:31.724Z,15.74
2023-01-01T00:42:02.202Z,15.48
2023-01-01T00:44:33.289Z,14.39
2023-01-01T00:47:03.821Z,13.52
2023-01-01T00:49:34.761Z,12.90
2023-01-01T00:52:05.591Z,12.80
2023-01-01T00:54:36.276Z,13.90
2023-01-01T00:57:06.890Z,14.94
2023-01-01T00:59:37.998Z,15.49
2023-01-01T01:02:08.623Z,15.62
2023-01-01T01:04:39.667Z,14.63
2023-01-01T01:07:10.196Z,13.60
2023-01-01T01:09:41.142Z,12.86
2023-01-01T01:12:18.031Z,12.63
2023-01-01T01:14:49.785Z,13.75
2023-01-01T01:17:20.279Z,14.75
2023-01-01T01:19:51.255Z,15.38
2023-01-01T01:22:28.050Z,15.46
2023-01-01T01:24:59.737Z,14.33
2023-01-01T01:27:30.525Z,13.34
2023-01-01T01:30:01.484Z,12.61
2023-01-01T01:32:32.073Z,12.40
2023-01-01T01:35:02.906Z,13.47
2023-01-01T01:37:33.435Z,14.47
2023-01-01T01:40:04.909Z,15.12
2023-01-01T01:42:35.367Z,15.33
2023-01-01T01:45:07.419Z,14.39
2023-01-01T01:47:40.675Z,13.35
2023-01-01T01:50:09.758Z,12.59
2023-01-01T01:52:42.773Z,12.01
2023-01-01T01:55:13.898Z,11.97
2023-01-01T01:57:44.546Z,13.13
2023-01-01T02:00:16.926Z,14.16
2023-01-01T02:02:52.415Z,14.81
2023-01-01T02:05:23.911Z,15.25
2023-01-01T02:07:55.100Z,15.04
2023-01-01T02:10:27.620Z,13.95
2023-01-01T02:12:58.304Z,13.00
2023-01-01T02:15:30.732Z,12.55
2023-01-01T02:18:02.957Z,13.46
2023-01-01T02:20:45.436Z,14.42
2023-01-01T02:23:32.389Z,15.04
2023-01-01T02:26:11.033Z,14.65
2023-01-01T02:28:50.134Z,13.45
2023-01-01T02:31:23.949Z,12.48
2023-01-01T02:33:56.537Z,12.16
2023-01-01T02:36:27.900Z,13.18
2023-01-01T02:38:59.401Z,14.15
2023-01-01T02:41:32.275Z,14.75
2023-01-01T02:46:34.370Z,15.03
2023-01-01T02:49:10.321Z,13.88
2023-01-01T02:51:48.394Z,12.71
2023-01-01T02:54:26.756Z,12.84
2023-01-01T02:56:59.873Z,13.92
2023-01-01T02:59:51.854Z,14.61
2023-01-01T03:02:25.747Z,14.37
2023-01-01T03:05:02.714Z,13.30
2023-01-01T03:07:37.307Z,12.42
2023-01-01T03:10:11.598Z,12.00
2023-01-01T03:12:45.339Z,13.00
2023-01-01T03:15:26.620Z,14.04
2023-01-01T03:18:00.511Z,14.43
2023-01-01T03:20:32.926Z,13.48
2023-01-01T03:23:07.931Z,12.46
2023-01-01T03:25:40.416Z,12.19
2023-01-01T03:28:13.749Z,13.22
2023-01-01T03:30:47.320Z,14.13
2023-01-01T03:33:19.416Z,14.23
2023-01-01T03:35:51.732Z,13.14
2023-01-01T03:38:25.540Z,12.12
2023-01-01T03:40:59.443Z,11.98
2023-01-01T03:43:33.358Z,13.05
2023-01-01T03:46:05.765Z,13.95
2023-01-01T03:49:02.758Z,14.06
2023-01-01T03:51:40.664Z,12.82
2023-01-01T03:54:15.661Z,11.80
2023-01-01T03:56:47.976Z,11.39
2023-01-01T03:59:23.226Z,12.42
2023-01-01T04:01:55.111Z,13.42
2023-01-01T04:04:27.041Z,13.90
2023-01-01T04:07:09.356Z,13.34
2023-01-01T04:09:50.728Z,12.06
2023-01-01T04:12:22.150Z,11.18
2023-01-01T04:14:52.903Z,11.22
2023-01-01T04:17:23.753Z,12.51
2023-01-01T04:19:55.421Z,13.35
2023-01-01T04:22:26.677Z,13.57
2023-01-01T04:24:57.475Z,12.30
2023-01-01T04:27:28.818Z,11.41
2023-01-01T04:29:59.461Z,12.22
2023-01-01T04:32:30.600Z,13.08
2023-01-01T04:35:01.952Z,13.61
2023-01-01T04:37:32.711Z,13.69
2023-01-01T04:40:03.511Z,12.64
2023-01-01T04:42:34.309Z,11.52
2023-01-01T04:45:05.190Z,11.09
2023-01-01T04:47:35.871Z,12.05
2023-01-01T04:50:07.229Z,13.01
2023-01-01T04:52:37.932Z,13.64
2023-01-01T04:55:09.707Z,13.85
2023-01-01T04:57:40.412Z,12.91
2023-01-01T05:00:13.867Z,11.85
2023-01-01T05:02:44.650Z,10.97
2023-01-01T05:05:15.657Z,10.60
2023-01-01T05:07:46.598Z,11.55
2023-01-01T05:10:17.425Z,12.53
2023-01-01T05:12:48.368Z,13.19
2023-01-01T05:15:19.205Z,13.49
2023-01-01T05:17:49.825Z,13.52
2023-01-01T05:20:20.669Z,12.44
2023-01-01T05:22:51.709Z,11.29
2023-01-01T05:25:22.649Z,10.73
2023-01-01T05:27:53.900Z,11.68
2023-01-01T05:30:26.274Z,12.64
2023-01-01T05:32:57.415Z,13.10
2023-01-01T05:35:28.849Z,13.48
2023-01-01T05:38:00.301Z,13.76
2023-01-01T05:40:31.650Z,13.77
2023-01-01T05:43:02.380Z,12.77
2023-01-01T05:45:33.247Z,11.68
2023-01-01T05:48:04.378Z,11.17
2023-01-01T05:50:35.166Z,12.11
2023-01-01T05:53:06.150Z,12.95
2023-01-01T05:55:36.871Z,13.43
2023-01-01T05:58:07.805Z,12.81
2023-01-01T06:00:38.538Z,11.64
2023-01-01T06:03:09.226Z,11.02
2023-01-01T06:05:40.054Z,11.79
2023-01-01T06:08:10.641Z,12.40
2023-01-01T06:10:41.484Z,12.88
2023-01-01T06:13:13.515Z,13.02
2023-01-01T06:15:44.475Z,11.91
2023-01-01T06:18:15.108Z,10.75
2023-01-01T06:20:45.859Z,10.31
2023-01-01T06:23:16.416Z,11.18
2023-01-01T06:25:47.726Z,12.09
2023-01-01T06:28:18.455Z,12.67
2023-01-01T06:30:49.327Z,13.11
2023-01-01T06:33:20.273Z,13.44
2023-01-01T06:35:51.065Z,13.42
2023-01-01T06:38:22.831Z,12.37
2023-01-01T06:41:01.580Z,11.34
2023-01-01T06:43:32.675Z,10.96
2023-01-01T06:46:05.257Z,12.08
2023-01-01T06:48:36.816Z,13.25
2023-01-01T06:51:08.774Z,12.58
2023-01-01T06:53:39.913Z,11.43
2023-01-01T06:56:11.509Z,10.87
2023-01-01T06:58:42.196Z,11.81
2023-01-01T07:01:14.154Z,12.85
2023-01-01T07:03:45.514Z,13.15
2023-01-01T07:06:16.467Z,12.07
2023-01-01T07:08:47.090Z,11.05
2023-01-01T07:11:17.807Z,10.69
2023-01-01T07:13:48.606Z,11.74
2023-01-01T07:16:19.391Z,12.83
2023-01-01T07:18:50.812Z,13.58
2023-01-01T07:21:29.522Z,13.41
2023-01-01T07:24:01.730Z,12.38
2023-01-01T07:26:33.426Z,11.60
2023-01-01T07:29:07.801Z,11.42
2023-01-01T07:31:40.555Z,12.57
2023-01-01T07:34:14.124Z,13.42
2023-01-01T07:36:44.914Z,13.52
2023-01-01T07:39:15.855Z,12.62
2023-01-01T07:41:47.097Z,11.75
2023-01-01T07:44:17.637Z,11.59
2023-01-01T07:46:48.710Z,12.71
2023-01-01T07:49:19.661Z,13.76
2023-01-01T07:51:51.346Z,13.77
2023-01-01T07:54:21.985Z,12.78
2023-01-01T07:56:52.784Z,12.00
2023-01-01T07:59:23.357Z,11.77
2023-01-01T08:01:54.317Z,13.05
2023-01-01T08:04:26.893Z,13.86
2023-01-01T08:06:57.702Z,13.18
2023-01-01T08:09:28.223Z,12.44
2023-01-01T08:11:59.584Z,12.00
2023-01-01T08:14:30.199Z,12.88
2023-01-01T08:17:01.163Z,14.10
2023-01-01T08:19:31.679Z,14.25
2023-01-01T08:22:02.908Z,13.35
2023-01-01T08:24:33.348Z,12.60
2023-01-01T08:27:04.584Z,12.09
2023-01-01T08:29:35.121Z,12.55
2023-01-01T08:32:06.661Z,13.72
2023-01-01T08:34:37.411Z,14.67
2023-01-01T08:37:08.640Z,15.00
2023-01-01T08:39:39.081Z,14.23
2023-01-01T08:42:12.407Z,13.47
2023-01-01T08:44:43.301Z,12.95
2023-01-01T08:47:20.199Z,12.60
2023-01-01T08:49:51.026Z,12.64
2023-01-01T08:52:22.731Z,13.87
2023-01-01T08:54:53.507Z,15.06
2023-01-01T08:57:24.354Z,15.57
2023-01-01T08:59:54.971Z,14.85
2023-01-01T09:02:26.201Z,14.09
2023-01-01T09:04:56.844Z,13.54
2023-01-01T09:07:27.778Z,13.27
2023-01-01T09:09:58.313Z,14.15
2023-01-01T09:12:29.470Z,15.29
2023-01-01T09:15:00.007Z,15.79
2023-01-01T09:17:30.920Z,15.05
2023-01-01T09:20:01.554Z,14.22
2023-01-01T09:22:32.595Z,13.63
2023-01-01T09:25:03.139Z,13.23
2023-01-01T09:27:34.057Z,12.93
2023-01-01T09:30:05.119Z,12.96
2023-01-01T09:32:36.081Z,14.20
2023-01-01T09:35:07.712Z,15.38
2023-01-01T09:37:38.530Z,15.43
2023-01-01T09:40:15.420Z,14.57
2023-01-01T09:42:50.400Z,13.84
2023-01-01T09:45:24.547Z,13.30
2023-01-01T09:47:56.640Z,12.88
2023-01-01T09:50:31.042Z,12.85
2023-01-01T09:53:02.469Z,14.12
2023-01-01T09:55:45.373Z,15.35
2023-01-01T09:58:16.681Z,15.87
2023-01-01T10:00:50.177Z,15.14
2023-01-01T10:03:34.507Z,14.41
2023-01-01T10:06:08.817Z,13.90
2023-01-01T10:08:44.541Z,13.61
2023-01-01T10:11:19.550Z,13.39
2023-01-01T10:13:51.854Z,13.54
2023-01-01T10:16:30.665Z,14.89
2023-01-01T10:19:03.483Z,16.16
2023-01-01T10:21:35.568Z,16.69
2023-01-01T10:24:11.915Z,16.04
2023-01-01T10:26:42.643Z,15.31
2023-01-01T10:29:16.303Z,14.79
2023-01-01T10:31:47.438Z,14.36
2023-01-01T10:34:20.670Z,14.05
2023-01-01T10:36:53.421Z,13.83
2023-01-01T10:39:24.549Z,13.69
2023-01-01T10:41:55.154Z,13.56
2023-01-01T10:44:28.319Z,14.01
2023-01-01T10:47:00.243Z,15.52
2023-01-01T10:49:31.121Z,16.01
2023-01-01T10:52:02.973Z,15.46
2023-01-01T10:54:38.421Z,14.99
2023-01-01T10:57:19.908Z,14.66
2023-01-01T10:59:54.436Z,14.46
2023-01-01T11:02:26.490Z,14.31
2023-01-01T11:05:21.464Z,14.18
2023-01-01T11:07:52.853Z,14.12
2023-01-01T11:10:25.844Z,14.11
2023-01-01T11:13:05.496Z,14.12
2023-01-01T11:15:39.914Z,14.16
2023-01-01T11:18:13.817Z,14.21
2023-01-01T11:20:44.889Z,14.31
2023-01-01T11:23:28.726Z,15.26
2023-01-01T11:26:04.371Z,16.85
2023-01-01T11:28:35.759Z,17.16
2023-01-01T11:31:11.396Z,16.73
2023-01-01T11:33:45.424Z,16.36
2023-01-01T11:36:23.828Z,16.15
2023-01-01T11:39:05.897Z,16.06
2023-01-01T11:41:43.847Z,16.03
2023-01-01T11:44:23.431Z,16.04
2023-01-01T11:46:54.321Z,16.02
2023-01-01T11:49:27.232Z,15.96
2023-01-01T11:51:58.839Z,15.90
2023-01-01T11:54:36.221Z,15.85
2023-01-01T11:57:14.853Z,15.81
2023-01-01T11:59:48.421Z,15.82
2023-01-01T12:02:34.275Z,15.83
2023-01-01T12:05:10.767Z,15.81
2023-01-01T12:07:44.479Z,15.81
2023-01-01T12:10:18.866Z,15.80
2023-01-01T12:12:52.749Z,15.80
2023-01-01T12:15:27.787Z,15.76
2023-01-01T12:18:02.747Z,15.73
2023-01-01T12:20:35.004Z,15.74
2023-01-01T12:23:06.032Z,15.74
2023-01-01T12:25:38.923Z,15.77
2023-01-01T12:28:16.873Z,15.78
2023-01-01T12:30:51.018Z,15.81
2023-01-01T12:33:28.672Z,15.84
2023-01-01T12:36:04.591Z,15.84
2023-01-01T12:38:46.063Z,15.83
2023-01-01T12:41:24.676Z,15.81
2023-01-01T12:44:02.344Z,15.80
2023-01-01T12:46:40.733Z,15.81
2023-01-01T12:49:22.240Z,15.84
2023-01-01T12:51:58.448Z,15.85
2023-01-01T12:54:44.608Z,15.89
2023-01-01T13:11:03.731Z,16.10
2023-01-01T13:13:34.723Z,16.12
2023-01-01T13:16:05.938Z,16.14
2023-01-01T13:18:37.190Z,16.12
2023-01-01T13:21:20.028Z,16.11
2023-01-01T13:23:52.475Z,16.08
2023-01-01T13:26:36.495Z,16.03
2023-01-01T13:29:24.686Z,15.96
2023-01-01T13:32:08.623Z,15.94
2023-01-01T13:35:00.634Z,15.89
2023-01-01T13:37:45.087Z,15.80
2023-01-01T13:40:50.397Z,15.75
2023-01-01T13:43:29.836Z,15.67
2023-01-01T13:46:12.362Z,15.57
2023-01-01T13:48:51.374Z,15.50
2023-01-01T13:54:49.450Z,15.30
2023-01-01T13:57:30.562Z,15.22
2023-01-01T14:00:05.960Z,15.17
2023-01-01T14:02:45.451Z,15.11
2023-01-01T14:05:18.291Z,15.06
2023-01-01T14:07:52.303Z,14.99
2023-01-01T14:10:26.389Z,14.95
2023-01-01T14:12:59.355Z,14.93
2023-01-01T14:15:31.114Z,14.91
2023-01-01T14:18:02.859Z,14.85
2023-01-01T14:20:35.882Z,14.77
2023-01-01T14:23:10.724Z,14.72
2023-01-01T14:25:42.364Z,14.64
2023-01-01T14:28:16.334Z,14.59
2023-01-01T14:30:47.379Z,14.51
2023-01-01T14:33:28.497Z,14.44
2023-01-01T14:36:00.644Z,14.38
2023-01-01T14:38:33.537Z,14.28
2023-01-01T14:41:12.982Z,14.21
2023-01-01T14:43:44.766Z,14.15
2023-01-01T14:46:18.123Z,14.09
2023-01-01T14:48:51.027Z,14.01
2023-01-01T14:51:23.808Z,13.96
2023-01-01T14:53:55.602Z,14.98
2023-01-01T14:56:27.989Z,16.09
2023-01-01T14:58:58.047Z,15.84
2023-01-01T15:01:28.949Z,15.22
2023-01-01T15:04:01.245Z,14.74
2023-01-01T15:06:33.665Z,14.42
2023-01-01T15:09:04.353Z,14.15
2023-01-01T15:11:35.496Z,13.94
2023-01-01T15:14:06.036Z,13.75
2023-01-01T15:16:40.570Z,13.57
2023-01-01T15:19:20.702Z,13.84
2023-01-01T15:21:51.635Z,15.26
2023-01-01T15:24:26.362Z,16.29
2023-01-01T15:26:58.011Z,15.79
2023-01-01T15:29:32.991Z,14.99
2023-01-01T15:32:05.130Z,14.37
2023-01-01T15:34:37.181Z,13.93
2023-01-01T15:37:10.287Z,13.73
2023-01-01T15:39:51.762Z,14.75
2023-01-01T15:42:30.032Z,15.60
2023-01-01T15:45:15.040Z,14.99
2023-01-01T15:47:47.655Z,14.20
2023-01-01T15:50:23.308Z,13.68
2023-01-01T15:52:56.208Z,13.29
2023-01-01T15:55:27.651Z,13.82
2023-01-01T15:57:59.198Z,15.16
2023-01-01T16:00:30.807Z,16.00
2023-01-01T16:03:03.238Z,15.38
2023-01-01T16:05:33.908Z,14.42
2023-01-01T16:08:05.576Z,14.12
2023-01-01T16:10:36.077Z,15.35
2023-01-01T16:13:07.666Z,15.85
2023-01-01T16:15:38.363Z,14.94
2023-01-01T16:18:13.444Z,14.04
2023-01-01T16:20:43.858Z,13.87
2023-01-01T16:23:14.985Z,14.92
2023-01-01T16:25:45.513Z,15.72
2023-01-01T16:28:16.444Z,15.37
2023-01-01T16:30:47.889Z,14.43
2023-01-01T16:33:20.777Z,14.03
2023-01-01T16:35:51.212Z,14.95
2023-01-01T16:38:23.164Z,15.72
2023-01-01T16:40:53.999Z,15.77
2023-01-01T16:43:24.956Z,14.83
2023-01-01T16:45:55.714Z,13.97
2023-01-01T16:48:26.928Z,14.22
2023-01-01T16:50:57.559Z,15.23
2023-01-01T16:53:28.691Z,15.89
2023-01-01T16:55:59.741Z,15.59
2023-01-01T17:01:21.915Z,13.51
2023-01-01T17:03:53.745Z,13.32
2023-01-01T17:06:24.433Z,14.31
2023-01-01T17:08:55.519Z,15.27
2023-01-01T17:11:25.953Z,15.90
2023-01-01T17:13:56.979Z,15.96
2023-01-01T17:16:34.453Z,14.93
2023-01-01T17:19:16.779Z,13.86
2023-01-01T17:21:49.906Z,13.10
2023-01-01T17:24:21.736Z,12.93
2023-01-01T17:26:53.305Z,14.02
2023-01-01T17:29:25.040Z,15.03
2023-01-01T17:31:55.558Z,15.64
2023-01-01T17:34:26.595Z,15.73
2023-01-01T17:36:57.131Z,14.74
2023-01-01T17:39:28.376Z,13.75
2023-01-01T17:41:59.346Z,13.05
2023-01-01T17:44:31.106Z,13.51
2023-01-01T17:47:02.005Z,14.64
2023-01-01T17:49:33.633Z,15.39
2023-01-01T17:52:04.295Z,15.47
2023-01-01T17:54:35.605Z,14.51
2023-01-01T17:57:06.119Z,13.61
2023-01-01T17:59:37.484Z,14.18
2023-01-01T18:02:11.946Z,15.19
2023-01-01T18:04:43.189Z,14.37
2023-01-01T18:07:13.809Z,13.40
2023-01-01T18:09:44.957Z,13.86
2023-01-01T18:12:15.578Z,14.68
2023-01-01T18:14:46.520Z,15.28
2023-01-01T18:17:17.011Z,15.50
2023-01-01T18:19:48.512Z,14.62
2023-01-01T18:22:19.129Z,13.55
2023-01-01T18:24:50.485Z,13.64
2023-01-01T18:27:21.516Z,14.49
2023-01-01T18:29:52.448Z,15.12
2023-01-01T18:32:22.940Z,15.19
2023-01-01T18:34:53.869Z,14.06
2023-01-01T18:37:25.065Z,12.97
2023-01-01T18:39:59.851Z,13.21
2023-01-01T18:42:36.294Z,14.19
2023-01-01T18:45:14.778Z,14.94
2023-01-01T18:47:46.893Z,14.98
2023-01-01T18:50:23.933Z,13.87
2023-01-01T18:52:55.775Z,13.15
2023-01-01T18:55:28.318Z,13.84
2023-01-01T18:58:01.008Z,14.46
2023-01-01T19:00:33.521Z,14.70
2023-01-01T19:03:05.149Z,15.03
2023-01-01T19:05:37.029Z,14.92
2023-01-01T19:08:14.059Z,13.67
2023-01-01T19:10:46.344Z,13.13
2023-01-01T19:13:19.014Z,13.82
2023-01-01T19:15:51.618Z,14.49
2023-01-01T19:18:24.001Z,14.91
2023-01-01T19:20:59.720Z,14.66
2023-01-01T19:23:31.455Z,13.37
2023-01-01T19:26:04.178Z,12.38
2023-01-01T19:28:35.859Z,12.59
2023-01-01T19:31:07.650Z,13.44
2023-01-01T19:33:38.294Z,14.14
2023-01-01T19:36:10.260Z,14.75
2023-01-01T19:38:40.923Z,14.96
2023-01-01T19:41:12.064Z,14.07
2023-01-01T19:43:42.626Z,12.74
2023-01-01T19:46:14.240Z,12.21
2023-01-01T19:48:44.986Z,13.12
2023-01-01T19:51:16.137Z,13.93
2023-01-01T19:53:46.653Z,14.48
2023-01-01T19:56:18.164Z,14.24
2023-01-01T19:58:49.446Z,12.82
2023-01-01T20:01:21.019Z,11.99
2023-01-01T20:03:54.501Z,12.53
2023-01-01T20:06:26.762Z,13.19
2023-01-01T20:08:57.295Z,13.89
2023-01-01T20:11:32.023Z,14.30
2023-01-01T20:14:02.738Z,14.21
2023-01-01T20:16:34.896Z,12.75
2023-01-01T20:19:05.466Z,11.85
2023-01-01T20:21:54.715Z,12.40
2023-01-01T20:24:25.351Z,13.30
2023-01-01T20:26:57.006Z,13.82
2023-01-01T20:29:28.768Z,14.19
2023-01-01T20:32:00.234Z,13.94
2023-01-01T20:34:31.015Z,12.78
2023-01-01T20:37:20.113Z,12.09
2023-01-01T20:39:50.759Z,12.92
2023-01-01T20:42:22.256Z,13.50
2023-01-01T20:44:52.836Z,13.79
2023-01-01T20:47:24.479Z,14.03
2023-01-01T20:49:56.991Z,14.26
2023-01-01T20:52:28.777Z,13.86
2023-01-01T20:54:59.463Z,12.52
2023-01-01T20:57:30.492Z,11.38
2023-01-01T21:00:01.220Z,11.70
2023-01-01T21:02:32.805Z,12.54
2023-01-01T21:05:07.862Z,13.00
2023-01-01T21:07:39.153Z,13.39
2023-01-01T21:10:10.563Z,13.66
2023-01-01T21:12:41.783Z,13.86
2023-01-01T21:15:15.242Z,13.24
2023-01-01T21:17:46.072Z,12.03
2023-01-01T21:20:16.810Z,11.67
2023-01-01T21:22:48.218Z,12.36
2023-01-01T21:25:49.829Z,13.07
2023-01-01T21:28:14.610Z,12.95
2023-01-01T21:30:48.731Z,13.22
2023-01-01T21:33:24.013Z,13.37
2023-01-01T21:35:54.742Z,13.53
2023-01-01T21:38:26.660Z,13.68
2023-01-01T21:40:58.774Z,13.08
2023-01-01T21:43:37.577Z,11.75
2023-01-01T21:46:19.973Z,11.06
2023-01-01T21:48:55.769Z,11.81
2023-01-01T21:51:27.375Z,12.70
2023-01-01T21:54:03.869Z,13.07
2023-01-01T21:56:36.299Z,13.25
2023-01-01T21:59:29.146Z,13.51
2023-01-01T22:02:16.839Z,13.79
2023-01-01T22:04:48.315Z,13.54
2023-01-01T22:10:15.661Z,11.53
2023-01-01T22:12:44.522Z,12.30
2023-01-01T22:15:29.083Z,12.90
2023-01-01T22:18:10.672Z,13.20
2023-01-01T22:20:41.928Z,13.38
2023-01-01T22:23:18.372Z,13.55
2023-01-01T22:25:49.487Z,13.76
2023-01-01T22:28:22.882Z,13.16
2023-01-01T22:30:55.828Z,11.84
2023-01-01T22:33:28.669Z,11.09
2023-01-01T22:35:59.908Z,11.82
2023-01-01T22:38:34.217Z,12.64
2023-01-01T22:41:04.881Z,13.11
2023-01-01T22:43:36.109Z,13.19
2023-01-01T22:46:13.035Z,12.16
2023-01-01T22:48:43.546Z,10.96
2023-01-01T22:51:18.161Z,10.40
2023-01-01T22:53:48.927Z,11.31
2023-01-01T22:56:20.550Z,12.22
2023-01-01T22:58:57.321Z,12.80
2023-01-01T23:01:28.801Z,13.18
2023-01-01T23:03:59.492Z,13.04
2023-01-01T23:06:30.356Z,11.87
2023-01-01T23:09:00.830Z,10.77
2023-01-01T23:11:32.504Z,10.31
2023-01-01T23:14:20.960Z,11.22
2023-01-01T23:16:51.982Z,12.23
2023-01-01T23:19:22.508Z,12.80
2023-01-01T23:21:53.336Z,12.42
2023-01-01T23:24:24.379Z,11.11
2023-01-01T23:26:55.456Z,10.33
2023-01-01T23:29:28.283Z,11.05
2023-01-01T23:31:59.345Z,11.90
2023-01-01T23:34:30.074Z,12.46
2023-01-01T23:37:01.076Z,12.69
2023-01-01T23:39:31.541Z,12.63
2023-01-01T23:42:02.682Z,11.52
2023-01-01T23:44:33.111Z,10.34
2023-01-01T23:47:04.612Z,9.70
2023-01-01T23:49:35.150Z,10.48
2023-01-01T23:52:06.640Z,11.31
2023-01-01T23:54:39.158Z,11.72
2023-01-01T23:57:10.059Z,12.01
2023-01-01T23:59:40.937Z,12.20
